createdAt,value
2018-06-21T00:01:57.671Z,13.20
2018-06-21T00:04:33.781Z,13.10
2018-06-21T00:07:09.197Z,13.10
2018-06-21T00:09:44.788Z,13.10
2018-06-21T00:12:19.945Z,13.10
2018-06-21T00:14:55.340Z,13.20
2018-06-21T00:17:30.530Z,13.20
2018-06-21T00:20:05.685Z,13.10
2018-06-21T00:22:40.805Z,13.10
2018-06-21T00:25:16.108Z,13.10
2018-06-21T00:27:51.489Z,13.20
2018-06-21T00:30:27.737Z,13.20
2018-06-21T00:33:03.054Z,13.30
2018-06-21T00:35:38.500Z,13.30
2018-06-21T00:38:13.881Z,13.20
2018-06-21T00:40:49.830Z,13.20
2018-06-21T00:43:25.101Z,13.30
2018-06-21T00:46:00.549Z,13.30
2018-06-21T00:48:35.882Z,13.20
2018-06-21T00:51:11.108Z,13.20
2018-06-21T00:53:46.145Z,13.30
2018-06-21T00:56:21.397Z,13.40
2018-06-21T00:58:56.730Z,13.40
2018-06-21T01:01:31.890Z,13.40
2018-06-21T01:06:42.414Z,13.50
2018-06-21T01:09:17.672Z,13.50
2018-06-21T01:11:53.170Z,13.50
2018-06-21T01:14:28.164Z,13.60
2018-06-21T01:17:03.434Z,13.60
2018-06-21T01:19:38.545Z,13.70
2018-06-21T01:22:13.757Z,13.70
2018-06-21T01:24:48.806Z,13.70
2018-06-21T01:27:24.146Z,13.80
2018-06-21T01:32:33.773Z,13.90
2018-06-21T01:35:08.652Z,13.80
2018-06-21T01:37:44.058Z,13.80
2018-06-21T01:40:19.923Z,13.80
2018-06-21T01:42:55.869Z,13.90
2018-06-21T01:45:31.192Z,13.90
2018-06-21T01:48:06.708Z,13.90
2018-06-21T01:50:43.120Z,14.00
2018-06-21T01:53:18.285Z,14.00
2018-06-21T01:55:53.443Z,14.10
2018-06-21T01:58:28.749Z,14.10
2018-06-21T02:01:04.453Z,14.10
2018-06-21T02:03:39.424Z,14.00
2018-06-21T02:06:14.508Z,13.90
2018-06-21T02:08:50.000Z,13.80
2018-06-21T02:11:24.928Z,13.80
2018-06-21T02:14:00.029Z,13.70
2018-06-21T02:16:35.009Z,13.70
2018-06-21T02:19:10.109Z,13.60
2018-06-21T02:21:45.030Z,13.60
2018-06-21T02:24:20.181Z,13.70
2018-06-21T02:26:55.253Z,13.70
2018-06-21T02:29:30.213Z,13.70
2018-06-21T02:32:05.322Z,13.70
2018-06-21T02:34:40.472Z,13.70
2018-06-21T02:37:15.362Z,13.80
2018-06-21T02:39:50.737Z,13.90
2018-06-21T02:42:25.707Z,14.00
2018-06-21T02:47:35.533Z,14.30
2018-06-21T02:50:10.977Z,14.50
2018-06-21T02:55:20.881Z,14.80
2018-06-21T02:57:55.745Z,15.00
2018-06-21T03:00:32.723Z,15.30
2018-06-21T03:05:42.462Z,15.40
2018-06-21T03:08:17.625Z,15.60
2018-06-21T03:10:53.868Z,15.70
2018-06-21T03:13:28.997Z,15.80
2018-06-21T03:16:04.508Z,16.00
2018-06-21T03:18:39.397Z,16.20
2018-06-21T03:21:14.597Z,16.40
2018-06-21T03:23:49.532Z,16.50
2018-06-21T03:26:24.800Z,16.60
2018-06-21T03:28:59.720Z,16.80
2018-06-21T03:31:35.129Z,16.90
2018-06-21T03:34:10.253Z,16.90
2018-06-21T03:36:45.605Z,16.90
2018-06-21T03:39:20.749Z,17.10
2018-06-21T03:41:55.979Z,17.20
2018-06-21T03:47:05.573Z,17.50
2018-06-21T03:49:40.688Z,17.60
2018-06-21T03:52:16.141Z,17.70
2018-06-21T03:54:51.084Z,17.70
2018-06-21T03:57:26.283Z,17.60
2018-06-21T04:00:01.250Z,17.60
2018-06-21T04:02:36.362Z,17.60
2018-06-21T04:05:11.549Z,17.60
2018-06-21T04:07:47.141Z,17.80
2018-06-21T04:33:01.469Z,18.00
2018-06-21T04:35:36.465Z,18.30
2018-06-21T04:38:11.870Z,18.00
2018-06-21T05:03:25.029Z,18.10
2018-06-21T05:06:00.201Z,18.50
2018-06-21T05:08:35.372Z,20.90
2018-06-21T05:11:10.338Z,21.20
2018-06-21T05:13:45.780Z,21.60
2018-06-21T05:16:21.161Z,21.90
2018-06-21T05:18:56.336Z,22.20
2018-06-21T05:21:31.517Z,22.50
2018-06-21T05:24:07.065Z,22.60
2018-06-21T05:26:42.336Z,22.90
2018-06-21T05:29:17.381Z,22.90
2018-06-21T05:31:52.605Z,22.90
2018-06-21T05:34:27.660Z,22.80
2018-06-21T05:37:02.787Z,22.90
2018-06-21T05:39:38.297Z,23.00
2018-06-21T05:42:13.768Z,23.00
2018-06-21T05:44:49.076Z,23.00
2018-06-21T05:47:24.366Z,22.90
2018-06-21T05:49:59.743Z,23.00
2018-06-21T05:52:35.287Z,22.90
2018-06-21T05:55:10.753Z,22.80
2018-06-21T05:57:45.722Z,22.80
2018-06-21T06:00:22.273Z,23.10
2018-06-21T06:02:57.262Z,23.20
2018-06-21T06:05:32.499Z,23.30
2018-06-21T06:08:07.915Z,23.40
2018-06-21T06:10:44.276Z,23.50
2018-06-21T06:15:54.312Z,23.30
2018-06-21T06:18:29.585Z,23.80
2018-06-21T06:21:04.614Z,24.50
2018-06-21T06:23:39.971Z,24.60
2018-06-21T06:26:15.180Z,24.50
2018-06-21T06:28:50.445Z,24.30
2018-06-21T06:31:25.566Z,24.60
2018-06-21T06:34:00.778Z,24.60
2018-06-21T06:36:36.021Z,25.20
2018-06-21T06:39:18.165Z,25.60
2018-06-21T06:41:53.634Z,25.90
2018-06-21T06:44:28.953Z,25.80
2018-06-21T06:47:04.547Z,25.70
2018-06-21T06:49:39.561Z,25.60
2018-06-21T06:52:14.825Z,25.50
2018-06-21T06:54:50.082Z,26.00
2018-06-21T06:57:25.392Z,26.10
2018-06-21T07:00:00.388Z,26.50
2018-06-21T07:02:36.072Z,26.60
2018-06-21T07:05:11.281Z,26.80
2018-06-21T07:07:46.590Z,27.10
2018-06-21T07:10:22.904Z,27.30
2018-06-21T07:12:58.268Z,27.40
2018-06-21T07:15:33.431Z,27.50
2018-06-21T07:18:08.832Z,27.10
2018-06-21T07:20:45.026Z,26.80
2018-06-21T07:23:20.293Z,26.90
2018-06-21T07:25:55.557Z,26.90
2018-06-21T07:28:31.163Z,27.00
2018-06-21T07:31:06.304Z,27.10
2018-06-21T07:33:41.681Z,27.40
2018-06-21T07:36:17.304Z,27.60
2018-06-21T07:38:52.847Z,27.90
2018-06-21T07:41:27.953Z,28.10
2018-06-21T07:44:03.538Z,28.30
2018-06-21T07:46:38.830Z,28.40
2018-06-21T07:49:14.233Z,28.60
2018-06-21T07:51:49.737Z,28.80
2018-06-21T07:54:24.884Z,28.60
2018-06-21T07:57:00.296Z,28.70
2018-06-21T07:59:35.777Z,29.00
2018-06-21T08:02:11.116Z,29.00
2018-06-21T08:04:46.384Z,28.90
2018-06-21T08:07:21.766Z,28.70
2018-06-21T08:09:57.078Z,28.90
2018-06-21T08:15:07.949Z,29.00
2018-06-21T08:17:43.229Z,28.80
2018-06-21T08:20:19.350Z,28.90
2018-06-21T08:22:54.687Z,29.30
2018-06-21T08:28:05.262Z,29.70
2018-06-21T08:30:40.926Z,29.20
2018-06-21T08:33:16.173Z,29.60
2018-06-21T08:35:51.372Z,30.30
2018-06-21T08:38:26.637Z,30.00
2018-06-21T08:41:03.041Z,30.40
2018-06-21T08:43:38.442Z,30.20
2018-06-21T08:46:13.837Z,30.20
2018-06-21T08:48:48.920Z,30.30
2018-06-21T08:51:24.077Z,30.60
2018-06-21T08:53:59.057Z,30.80
2018-06-21T08:56:34.657Z,30.80
2018-06-21T08:59:09.937Z,30.80
2018-06-21T09:01:45.117Z,31.10
2018-06-21T09:04:20.225Z,30.80
2018-06-21T09:07:06.387Z,30.70
2018-06-21T09:09:41.708Z,30.60
2018-06-21T09:12:17.962Z,30.80
2018-06-21T09:14:53.101Z,30.90
2018-06-21T09:17:28.258Z,31.10
2018-06-21T09:20:03.457Z,31.40
2018-06-21T09:22:38.910Z,31.20
2018-06-21T09:25:14.025Z,31.40
2018-06-21T09:27:49.229Z,31.60
2018-06-21T09:30:25.517Z,31.50
2018-06-21T09:33:00.705Z,31.10
2018-06-21T09:35:36.014Z,30.70
2018-06-21T09:38:16.636Z,31.20
2018-06-21T09:40:57.892Z,31.80
2018-06-21T09:43:50.291Z,31.90
2018-06-21T09:46:19.025Z,31.80
2018-06-21T09:48:54.437Z,32.00
2018-06-21T09:51:29.623Z,32.30
2018-06-21T09:54:05.444Z,32.30
2018-06-21T09:56:40.902Z,31.90
2018-06-21T09:59:16.217Z,31.30
2018-06-21T10:01:58.348Z,31.50
2018-06-21T10:04:33.865Z,31.10
2018-06-21T10:07:09.142Z,31.10
2018-06-21T10:09:45.845Z,30.70
2018-06-21T10:12:21.177Z,30.80
2018-06-21T10:14:56.404Z,31.00
2018-06-21T10:17:31.529Z,30.90
2018-06-21T10:20:06.873Z,31.20
2018-06-21T10:22:41.967Z,31.30
2018-06-21T10:25:17.134Z,31.30
2018-06-21T10:27:52.713Z,31.50
2018-06-21T10:30:29.576Z,31.40
2018-06-21T10:33:04.807Z,31.50
2018-06-21T10:48:51.407Z,31.90
2018-06-21T10:51:26.601Z,31.60
2018-06-21T10:54:02.132Z,31.20
2018-06-21T10:56:37.589Z,31.10
2018-06-21T10:59:12.977Z,31.30
2018-06-21T11:01:48.697Z,31.70
2018-06-21T11:04:24.001Z,31.70
2018-06-21T11:06:59.392Z,31.30
2018-06-21T11:09:34.701Z,31.90
2018-06-21T11:12:10.110Z,31.80
2018-06-21T11:14:45.486Z,31.70
2018-06-21T11:17:20.765Z,32.30
2018-06-21T11:19:56.426Z,32.30
2018-06-21T11:22:31.580Z,32.30
2018-06-21T11:25:06.800Z,32.40
2018-06-21T11:27:42.370Z,32.10
2018-06-21T11:30:19.000Z,32.10
2018-06-21T11:32:54.470Z,32.10
2018-06-21T11:38:04.957Z,31.40
2018-06-21T11:40:41.198Z,31.40
2018-06-21T11:43:16.469Z,31.70
2018-06-21T11:45:51.895Z,32.00
2018-06-21T11:48:27.005Z,32.30
2018-06-21T11:51:03.245Z,32.50
2018-06-21T11:53:38.572Z,32.30
2018-06-21T11:56:14.027Z,32.70
2018-06-21T11:58:49.526Z,32.90
2018-06-21T12:01:24.783Z,33.10
2018-06-21T12:04:00.097Z,33.00
2018-06-21T12:06:35.438Z,32.60
2018-06-21T12:09:11.389Z,32.10
2018-06-21T12:11:46.785Z,32.30
2018-06-21T12:14:22.175Z,32.50
2018-06-21T12:16:58.393Z,32.60
2018-06-21T12:19:33.840Z,32.80
2018-06-21T12:22:09.297Z,32.60
2018-06-21T12:24:44.814Z,32.70
2018-06-21T12:27:20.498Z,32.40
2018-06-21T12:29:55.801Z,32.60
2018-06-21T12:32:31.489Z,32.50
2018-06-21T12:35:06.971Z,32.80
2018-06-21T12:37:42.496Z,33.00
2018-06-21T12:40:18.693Z,33.20
2018-06-21T12:42:54.090Z,33.00
2018-06-21T12:45:29.292Z,33.00
2018-06-21T12:48:04.473Z,33.20
2018-06-21T13:10:02.513Z,33.50
2018-06-21T13:12:49.781Z,33.20
2018-06-21T13:15:25.335Z,33.00
2018-06-21T13:18:00.601Z,33.50
2018-06-21T13:35:17.668Z,33.70
2018-06-21T13:37:53.217Z,33.50
2018-06-21T13:40:29.664Z,35.10
2018-06-21T13:43:04.797Z,37.20
2018-06-21T13:48:14.937Z,34.30
2018-06-21T13:50:50.584Z,35.30
2018-06-21T13:53:25.968Z,37.50
2018-06-21T13:56:01.102Z,40.40
2018-06-21T13:58:36.467Z,41.10
2018-06-21T14:01:11.695Z,40.80
2018-06-21T14:03:47.047Z,39.90
2018-06-21T14:06:22.414Z,42.50
2018-06-21T14:08:57.451Z,39.70
2018-06-21T14:11:32.378Z,41.00
2018-06-21T14:14:07.253Z,42.60
2018-06-21T14:16:42.533Z,43.10
2018-06-21T14:21:52.584Z,43.40
2018-06-21T14:24:27.617Z,42.60
2018-06-21T14:27:02.707Z,42.20
2018-06-21T14:29:37.920Z,43.80
2018-06-21T14:34:47.953Z,43.50
2018-06-21T14:39:57.849Z,40.10
2018-06-21T14:42:33.570Z,42.10
2018-06-21T14:45:08.506Z,41.90
2018-06-21T14:47:43.522Z,43.50
2018-06-21T14:50:18.626Z,43.30
2018-06-21T14:52:54.148Z,43.00
2018-06-21T14:55:29.661Z,41.80
2018-06-21T14:58:05.201Z,42.00
2018-06-21T15:00:41.205Z,42.90
2018-06-21T15:05:51.426Z,44.10
2018-06-21T15:08:27.499Z,43.50
2018-06-21T15:33:39.765Z,44.00
2018-06-21T15:36:14.911Z,42.10
2018-06-21T15:38:50.564Z,44.00
2018-06-21T15:41:26.457Z,44.10
2018-06-21T15:44:16.003Z,44.10
2018-06-21T15:46:50.993Z,43.40
2018-06-21T15:49:26.451Z,43.50
2018-06-21T15:52:01.610Z,43.10
2018-06-21T15:54:36.818Z,43.00
2018-06-21T15:57:11.931Z,43.30
2018-06-21T15:59:47.033Z,43.30
2018-06-21T16:02:22.113Z,42.30
2018-06-21T16:04:57.441Z,43.00
2018-06-21T16:07:32.482Z,42.00
2018-06-21T16:10:09.511Z,41.50
2018-06-21T16:15:30.867Z,41.40
2018-06-21T16:18:06.275Z,41.50
2018-06-21T16:20:43.445Z,41.30
2018-06-21T16:23:33.682Z,42.20
2018-06-21T16:26:09.061Z,42.00
2018-06-21T16:28:44.187Z,42.40
2018-06-21T16:31:19.405Z,43.00
2018-06-21T16:33:54.546Z,42.50
2018-06-21T16:36:29.621Z,43.10
2018-06-21T16:39:06.427Z,42.30
2018-06-21T16:41:41.565Z,41.40
2018-06-21T16:44:16.626Z,40.40
2018-06-21T16:46:51.730Z,38.30
2018-06-21T16:49:26.872Z,37.50
2018-06-21T16:52:02.126Z,36.20
2018-06-21T16:54:37.204Z,34.60
2018-06-21T16:57:12.362Z,33.60
2018-06-21T20:46:59.909Z,14.50
2018-06-21T20:49:34.929Z,14.10
2018-06-21T20:52:14.516Z,14.30
2018-06-21T20:54:49.540Z,14.50
2018-06-21T20:57:25.320Z,14.70
2018-06-21T21:00:00.400Z,14.90
2018-06-21T21:02:35.709Z,14.90
2018-06-21T21:05:10.576Z,15.00
2018-06-21T21:07:47.090Z,15.10
